Time;durP1;ratioP1;P1;durP2;ratioP2;P2;SDS_P1;SDS_P2;PMS_P1;PMS_P2;Temp;Humidity;BMP_temperature;BMP_pressure;BME280_temperature;BME280_humidity;BME280_pressure;Samples;Min_cycle;Max_cycle;Signal;HPM_P1;HPM_P2
2021/07/14 00:01:26;;;;;;;;;;;;;;;22.25;67.20;100265.67;1753036;80;20776;-75
2021/07/14 00:03:53;;;;;;;;;;;;;;;22.19;67.13;100265.62;1725032;82;20480;-75
2021/07/14 00:06:19;;;;;;;;;;;;;;;22.14;67.31;100258.52;1741655;81;20121;-75
2021/07/14 00:08:45;;;;;;;;;;;;;;;22.13;67.49;100260.78;1741799;80;20270;-75
2021/07/14 00:11:11;;;;;;;;;;;;;;;22.11;67.57;100263.52;1738636;81;20446;-75
2021/07/14 00:14:02;;;;;;;;;;;;;;;22.10;67.64;100261.84;1743251;81;20179;-75
2021/07/14 00:22:09;;;;;;;;;;;;;;;22.04;67.77;100248.25;1743995;80;20192;-75
2021/07/14 00:24:36;;;;;;;;;;;;;;;22.03;67.80;100234.72;1720055;82;20198;-75
2021/07/14 00:27:05;;;;;;;;;;;;;;;21.99;67.61;100231.42;1728164;81;20117;-75
2021/07/14 00:29:31;;;;;;;;;;;;;;;21.91;67.76;100218.42;1721645;82;20444;-76
2021/07/14 00:31:57;;;;;;;;;;;;;;;21.86;67.78;100219.22;1722007;82;20109;-76
2021/07/14 00:34:23;;;;;;;;;;;;;;;21.84;68.15;100214.53;1735273;82;20191;-76
2021/07/14 00:36:49;;;;;;;;;;;;;;;21.88;68.20;100218.63;1734452;82;20155;-76
2021/07/14 00:39:14;;;;;;;;;;;;;;;21.88;68.02;100223.90;1736737;82;20796;-75
2021/07/14 00:41:43;;;;;;;;;;;;;;;21.87;68.32;100236.69;1720046;82;20482;-75
2021/07/14 00:44:09;;;;;;;;;;;;;;;;;;1740404;82;20140;-75
2021/07/14 00:46:35;;;;;;;;;;;;;;;21.87;68.34;100268.28;1741932;81;20209;-75
2021/07/14 00:49:02;;;;;;;;;;;;;;;21.85;68.25;100260.48;1746207;80;20124;-75
2021/07/14 00:51:31;;;;;;;;;;;;;;;21.79;68.23;100260.94;1770624;80;20200;-75
2021/07/14 00:53:58;;;;;;;;;;;;;;;21.76;68.53;100262.46;1769883;80;20187;-75
2021/07/14 00:56:27;;;;;;;;;;;;;;;21.78;68.54;100263.20;1742055;80;20135;-75
2021/07/14 00:58:55;;;;;;;;;;;;;;;21.76;68.56;100249.30;1768493;80;20116;-75
2021/07/14 01:01:22;;;;;;;;;;;;;;;21.70;68.51;100245.30;1770357;80;20435;-75
2021/07/14 01:04:01;;;;;;;;;;;;;;;21.67;68.66;100237.61;1766685;80;20143;-75
2021/07/14 01:06:30;;;;;;;;;;;;;;;21.67;68.74;100242.88;1772074;80;20227;-75
2021/07/14 01:09:02;;;;;;;;;;;;;;;21.68;68.98;100236.66;1758019;80;20147;-76
2021/07/14 01:11:31;;;;;;;;;;;;;;;21.71;68.93;100246.14;1759341;80;20196;-76
2021/07/14 01:14:22;;;;;;;;;;;;;;;21.71;68.98;100242.19;1758141;80;20171;-76
2021/07/14 01:17:08;;;;;;;;;;;;;;;21.73;69.10;100247.72;1768659;80;20166;-75
2021/07/14 01:20:13;;;;;;;;;;;;;;;21.72;69.17;100242.56;1744539;80;21002;-75
2021/07/14 01:23:07;;;;;;;;;;;;;;;21.71;69.12;100243.51;1756724;80;20604;-75
2021/07/14 01:25:53;;;;;;;;;;;;;;;21.69;69.16;100244.09;1763066;80;20131;-75
2021/07/14 01:28:24;;;;;;;;;;;;;;;21.64;69.18;100244.39;1734356;80;20126;-75
2021/07/14 01:30:51;;;;;;;;;;;;;;;21.62;69.19;100239.71;1769198;80;20213;-75
2021/07/14 01:33:20;;;;;;;;;;;;;;;21.58;69.25;100230.81;1754245;80;21111;-75
2021/07/14 01:35:49;;;;;;;;;;;;;;;21.55;69.26;100239.75;1737658;81;20117;-75
2021/07/14 01:38:18;;;;;;;;;;;;;;;21.53;69.35;100236.86;1746532;80;20090;-75
2021/07/14 01:40:45;;;;;;;;;;;;;;;21.54;69.47;100242.02;1738152;80;20453;-75
2021/07/14 01:43:13;;;;;;;;;;;;;;;21.54;69.68;100242.48;1750468;80;20134;-75
2021/07/14 01:45:41;;;;;;;;;;;;;;;21.58;69.75;100238.70;1751620;81;20088;-75
2021/07/14 01:48:10;;;;;;;;;;;;;;;21.62;69.75;100235.77;1742007;81;20091;-75
2021/07/14 01:50:39;;;;;;;;;;;;;;;21.63;69.83;100236.13;1707834;83;20102;-75
2021/07/14 01:53:06;;;;;;;;;;;;;;;21.66;69.90;100241.19;1743524;81;20107;-75
2021/07/14 01:55:33;;;;;;;;;;;;;;;21.64;69.85;100242.23;1735432;80;20093;-75
2021/07/14 01:58:00;;;;;;;;;;;;;;;21.63;69.83;100236.13;1738458;81;20131;-75
2021/07/14 02:00:26;;;;;;;;;;;;;;;21.62;69.73;100220.45;1760479;80;20327;-75
2021/07/14 02:03:18;;;;;;;;;;;;;;;21.56;69.89;100211.66;1738636;82;20099;-75
2021/07/14 02:05:41;;;;;;;;;;;;;;;21.58;69.92;100206.66;1734162;82;20119;-75
2021/07/14 02:08:07;;;;;;;;;;;;;;;21.57;70.07;100206.29;1762634;79;20125;-75
2021/07/14 02:10:33;;;;;;;;;;;;;;;21.56;69.92;100207.23;1739304;81;20334;-75
2021/07/14 02:13:00;;;;;;;;;;;;;;;21.53;70.14;100202.66;1749332;80;20964;-75
2021/07/14 02:15:27;;;;;;;;;;;;;;;21.55;70.17;100206.02;1724375;81;20154;-75
2021/07/14 02:17:59;;;;;;;;;;;;;;;21.55;70.30;100206.02;1741748;81;20127;-75
2021/07/14 02:20:25;;;;;;;;;;;;;;;21.57;70.16;100202.34;1746428;81;20181;-75
2021/07/14 02:22:52;;;;;;;;;;;;;;;21.55;70.18;100204.70;1749175;80;20789;-75
2021/07/14 02:25:19;;;;;;;;;;;;;;;21.53;70.29;100210.55;1741380;81;20129;-76
2021/07/14 02:27:46;;;;;;;;;;;;;;;21.56;70.10;100211.66;1732518;81;21080;-76
2021/07/14 02:30:20;;;;;;;;;;;;;;;21.55;70.39;100214.76;1748836;80;20220;-76
2021/07/14 02:32:52;;;;;;;;;;;;;;;21.58;70.54;100208.45;1723069;82;20584;-75
2021/07/14 02:35:19;;;;;;;;;;;;;;;21.60;70.44;100205.23;1750813;81;20495;-75
2021/07/14 02:37:52;;;;;;;;;;;;;;;21.59;70.50;100204.39;1765544;80;20461;-75
2021/07/14 02:40:27;;;;;;;;;;;;;;;21.59;70.62;100209.66;1741840;80;20552;-75
2021/07/14 02:42:56;;;;;;;;;;;;;;;21.63;70.72;100207.66;1743187;81;20425;-75
2021/07/14 02:45:28;;;;;;;;;;;;;;;21.63;70.64;100206.34;1715695;83;20549;-75
2021/07/14 02:47:56;;;;;;;;;;;;;;;21.62;70.65;100209.45;1744015;81;20184;-75
2021/07/14 02:50:25;;;;;;;;;;;;;;;21.65;70.78;100214.50;1718568;82;20434;-75
2021/07/14 02:52:53;;;;;;;;;;;;;;;21.64;70.82;100210.19;1718538;82;20166;-75
2021/07/14 02:55:25;;;;;;;;;;;;;;;21.68;70.85;100205.55;1718247;82;20210;-75
2021/07/14 02:57:55;;;;;;;;;;;;;;;21.65;70.77;100205.30;1718124;82;20584;-75
2021/07/14 03:00:23;;;;;;;;;;;;;;;21.65;70.84;100208.40;1718893;82;21109;-75
2021/07/14 03:02:49;;;;;;;;;;;;;;;21.67;71.00;100197.30;1714662;83;20217;-75
2021/07/14 03:05:16;;;;;;;;;;;;;;;21.67;70.90;100202.09;1718736;82;20564;-75
2021/07/14 03:07:43;;;;;;;;;;;;;;;21.66;70.90;100206.98;1718439;82;20484;-75
2021/07/14 03:10:10;;;;;;;;;;;;;;;21.66;70.97;100206.14;1728998;82;20514;-75
2021/07/14 03:12:37;;;;;;;;;;;;;;;21.68;71.09;100204.24;1727315;82;20541;-76
2021/07/14 03:15:08;;;;;;;;;;;;;;;21.70;71.13;100201.03;1719704;82;20974;-76
2021/07/14 03:17:36;;;;;;;;;;;;;;;21.72;71.17;100216.24;1721848;82;20428;-76
2021/07/14 03:20:06;;;;;;;;;;;;;;;21.70;71.04;100213.72;1725782;82;20157;-75
2021/07/14 03:22:32;;;;;;;;;;;;;;;21.74;71.33;100225.72;1727430;82;20587;-75
2021/07/14 03:24:59;;;;;;;;;;;;;;;21.75;71.21;100215.56;1713716;82;20177;-75
2021/07/14 03:27:26;;;;;;;;;;;;;;;21.80;71.35;100213.93;1727445;82;20404;-76
2021/07/14 03:29:52;;;;;;;;;;;;;;;21.78;71.07;100210.09;1734405;82;20539;-75
2021/07/14 03:32:19;;;;;;;;;;;;;;;21.77;71.38;100207.09;1718467;82;20132;-75
2021/07/14 03:34:53;;;;;;;;;;;;;;;21.80;71.36;100208.19;1723201;82;36536;-76
2021/07/14 03:37:20;;;;;;;;;;;;;;;21.81;71.45;100209.03;1728909;81;20404;-76
2021/07/14 03:39:47;;;;;;;;;;;;;;;21.85;71.49;100210.95;1718360;82;20442;-76
2021/07/14 03:42:15;;;;;;;;;;;;;;;21.87;71.55;100212.53;1727617;82;20515;-75
2021/07/14 03:44:44;;;;;;;;;;;;;;;21.92;71.47;100209.58;1722216;80;20548;-76
2021/07/14 03:47:10;;;;;;;;;;;;;;;21.95;71.46;100201.47;1744698;81;20129;-76
2021/07/14 03:49:38;;;;;;;;;;;;;;;21.98;71.47;100199.94;1762933;80;20483;-76
2021/07/14 03:52:06;;;;;;;;;;;;;;;22.02;71.55;100202.76;1759908;80;20587;-76
2021/07/14 03:54:32;;;;;;;;;;;;;;;22.06;71.50;100202.91;1761805;80;20483;-76
2021/07/14 03:57:00;;;;;;;;;;;;;;;22.10;71.63;100189.42;1744768;81;20217;-76
2021/07/14 03:59:26;;;;;;;;;;;;;;;22.16;71.53;100177.61;1740237;80;20225;-76
2021/07/14 04:01:54;;;;;;;;;;;;;;;22.19;71.49;100172.60;1751958;81;20153;-75
2021/07/14 04:04:20;;;;;;;;;;;;;;;22.23;71.59;100181.50;1753352;81;20425;-75
2021/07/14 04:06:50;;;;;;;;;;;;;;;22.31;71.68;100180.95;1752654;81;20130;-75
2021/07/14 04:09:22;;;;;;;;;;;;;;;22.37;71.55;100184.43;1752788;80;20413;-76
2021/07/14 04:11:52;;;;;;;;;;;;;;;22.41;71.51;100177.99;1775108;80;20180;-76
2021/07/14 04:14:18;;;;;;;;;;;;;;;22.48;71.52;100181.02;1760970;80;20463;-76
2021/07/14 04:16:44;;;;;;;;;;;;;;;22.57;71.72;100183.84;1725176;82;20176;-76
2021/07/14 04:19:10;;;;;;;;;;;;;;;22.66;71.72;100188.44;1755589;81;20445;-76
2021/07/14 04:21:37;;;;;;;;;;;;;;;22.77;71.61;100187.66;1757187;80;20264;-76
2021/07/14 04:24:04;;;;;;;;;;;;;;;22.82;71.54;100177.65;1751620;80;20193;-76
2021/07/14 04:26:33;;;;;;;;;;;;;;;22.86;71.55;100175.16;1728381;81;20610;-76
2021/07/14 04:28:59;;;;;;;;;;;;;;;22.91;71.61;100173.46;1756463;81;20171;-76
2021/07/14 04:31:25;;;;;;;;;;;;;;;22.98;71.57;100176.84;1752260;81;20617;-76
2021/07/14 04:33:51;;;;;;;;;;;;;;;23.03;71.58;100176.03;1740791;81;20190;-76
2021/07/14 04:36:17;;;;;;;;;;;;;;;23.12;71.66;100170.55;1740366;81;20168;-76
2021/07/14 04:38:43;;;;;;;;;;;;;;;23.23;71.76;100173.70;1753005;81;20787;-76
2021/07/14 04:41:09;;;;;;;;;;;;;;;23.31;71.69;100172.16;1754229;80;20256;-76
2021/07/14 04:43:35;;;;;;;;;;;;;;;23.37;71.69;100169.06;1750843;80;20184;-75
2021/07/14 04:46:02;;;;;;;;;;;;;;;23.47;71.61;100163.05;1741879;80;20588;-75
2021/07/14 04:48:27;;;;;;;;;;;;;;;23.58;71.64;100161.78;1750424;80;20698;-75
2021/07/14 04:50:56;;;;;;;;;;;;;;;23.66;71.50;100160.23;1761174;80;20241;-75
2021/07/14 04:53:22;;;;;;;;;;;;;;;23.75;71.55;100158.19;1764864;80;20263;-75
2021/07/14 04:55:48;;;;;;;;;;;;;;;23.82;71.48;100147.99;1757913;80;20809;-76
2021/07/14 04:58:14;;;;;;;;;;;;;;;23.93;71.52;100147.12;1733462;81;20173;-76
2021/07/14 05:00:40;;;;;;;;;;;;;;;24.06;71.53;100146.51;1772515;80;20234;-76
2021/07/14 05:03:06;;;;;;;;;;;;;;;24.12;71.30;100148.66;1751935;80;20514;-76
2021/07/14 05:05:32;;;;;;;;;;;;;;;24.24;71.46;100152.97;1759692;80;20196;-76
2021/07/14 05:07:58;;;;;;;;;;;;;;;24.38;71.45;100152.73;1744027;80;20214;-76
2021/07/14 05:10:31;;;;;;;;;;;;;;;24.54;71.27;100147.50;1746912;80;20175;-76
2021/07/14 05:12:59;;;;;;;;;;;;;;;24.71;71.34;100145.64;1753384;80;20229;-75
2021/07/14 05:15:25;;;;;;;;;;;;;;;24.92;71.06;100146.51;1743700;80;20437;-75
2021/07/14 05:17:52;;;;;;;;;;;;;;;25.06;71.16;100157.27;1754677;80;20470;-75
2021/07/14 05:20:18;;;;;;;;;;;;;;;25.25;71.02;100158.73;1765044;80;20274;-75
2021/07/14 05:22:45;;;;;;;;;;;;;;;25.52;71.31;100154.67;1749935;80;20118;-75
2021/07/14 05:25:23;;;;;;;;;;;;;;;25.84;70.94;100159.89;1740099;80;20156;-75
2021/07/14 05:27:49;;;;;;;;;;;;;;;26.08;70.80;100155.55;1755549;80;20173;-75
2021/07/14 05:30:17;;;;;;;;;;;;;;;26.34;70.91;100149.66;1737588;80;20269;-75
2021/07/14 05:32:44;;;;;;;;;;;;;;;26.64;70.70;100150.51;1754766;80;20408;-75
2021/07/14 05:35:10;;;;;;;;;;;;;;;26.85;70.16;100154.36;1755569;80;20243;-75
2021/07/14 05:37:36;;;;;;;;;;;;;;;27.02;70.28;100155.02;1743016;80;20216;-75
2021/07/14 05:40:03;;;;;;;;;;;;;;;27.24;70.28;100153.34;1732554;80;20179;-75
2021/07/14 05:42:29;;;;;;;;;;;;;;;27.52;70.12;100154.27;1765609;80;20179;-75
2021/07/14 05:44:55;;;;;;;;;;;;;;;27.85;70.20;100149.39;1749192;80;20115;-75
2021/07/14 05:47:21;;;;;;;;;;;;;;;28.21;69.89;100153.84;1712486;81;20195;-75
2021/07/14 05:49:47;;;;;;;;;;;;;;;28.45;69.32;100161.74;1721860;82;20109;-75
2021/07/14 05:52:14;;;;;;;;;;;;;;;28.66;69.48;100164.92;1734722;82;20193;-76
2021/07/14 05:54:41;;;;;;;;;;;;;;;28.85;69.41;100158.15;1744454;81;20198;-76
2021/07/14 05:57:07;;;;;;;;;;;;;;;29.14;69.37;100151.20;1724290;80;20216;-76
2021/07/14 05:59:33;;;;;;;;;;;;;;;29.42;69.09;100153.77;1739921;80;20225;-76
2021/07/14 06:01:59;;;;;;;;;;;;;;;29.69;69.08;100148.23;1742296;80;20551;-76
2021/07/14 06:04:38;;;;;;;;;;;;;;;29.90;68.83;100144.67;1731758;81;20508;-76
2021/07/14 06:07:04;;;;;;;;;;;;;;;30.08;68.52;100147.77;1745731;80;20183;-76
2021/07/14 06:09:31;;;;;;;;;;;;;;;29.98;68.33;100151.37;1754311;80;20130;-76
2021/07/14 06:12:00;;;;;;;;;;;;;;;30.12;68.45;100154.45;1747593;80;20229;-76
2021/07/14 06:14:25;;;;;;;;;;;;;;;30.20;68.31;100156.62;1741351;80;20201;-76
2021/07/14 06:16:52;;;;;;;;;;;;;;;30.38;68.12;100165.84;1745006;81;20708;-78
2021/07/14 06:19:19;;;;;;;;;;;;;;;30.54;67.82;100169.05;1748078;80;20179;-76
2021/07/14 06:21:46;;;;;;;;;;;;;;;30.52;67.51;100175.05;1756518;80;20165;-76
2021/07/14 06:24:12;;;;;;;;;;;;;;;30.46;67.34;100175.20;1743205;80;20201;-76
2021/07/14 06:26:39;;;;;;;;;;;;;;;30.51;67.35;100176.05;1744057;80;20177;-76
2021/07/14 06:29:05;;;;;;;;;;;;;;;30.54;67.25;100185.06;1754689;80;20188;-76
2021/07/14 06:31:32;;;;;;;;;;;;;;;30.51;66.97;100183.55;1759120;80;20185;-76
2021/07/14 06:33:58;;;;;;;;;;;;;;;30.41;66.84;100178.02;1766795;80;20266;-76
2021/07/14 06:36:24;;;;;;;;;;;;;;;30.53;67.09;100186.05;1732640;82;20182;-76
2021/07/14 06:38:50;;;;;;;;;;;;;;;30.82;66.78;100190.45;1732014;81;20192;-76
2021/07/14 06:41:18;;;;;;;;;;;;;;;31.06;66.80;100187.46;1732255;81;20192;-77
2021/07/14 06:43:50;;;;;;;;;;;;;;;31.18;66.16;100182.98;1768082;79;20140;-77
2021/07/14 06:46:14;;;;;;;;;;;;;;;31.44;66.11;100186.77;1728672;80;20433;-77
2021/07/14 06:48:40;;;;;;;;;;;;;;;31.72;65.95;100185.87;1726977;81;20093;-77
2021/07/14 06:51:07;;;;;;;;;;;;;;;31.62;65.25;100190.58;1746239;80;20130;-77
2021/07/14 06:53:33;;;;;;;;;;;;;;;31.50;65.64;100192.77;1746491;80;20572;-76
2021/07/14 06:56:01;;;;;;;;;;;;;;;31.56;65.49;100192.09;1743778;80;20434;-75
2021/07/14 06:58:28;;;;;;;;;;;;;;;31.67;65.11;100186.89;1740937;80;20426;-75
2021/07/14 07:00:57;;;;;;;;;;;;;;;31.80;64.98;100185.02;1742358;80;20502;-75
2021/07/14 07:03:23;;;;;;;;;;;;;;;32.06;64.67;100186.10;1737914;80;20088;-76
2021/07/14 07:05:50;;;;;;;;;;;;;;;32.10;64.35;100184.75;1762351;80;20093;-75
2021/07/14 07:08:16;;;;;;;;;;;;;;;32.32;64.22;100179.96;1754482;80;20094;-75
2021/07/14 07:10:56;;;;;;;;;;;;;;;32.61;64.21;100179.80;1751603;80;20086;-75
2021/07/14 07:13:23;;;;;;;;;;;;;;;32.87;63.80;100178.94;1741844;80;20092;-75
2021/07/14 07:15:49;;;;;;;;;;;;;;;33.02;63.43;100181.16;1756321;80;20083;-75
2021/07/14 07:18:19;;;;;;;;;;;;;;;33.11;63.35;100171.22;1757869;80;20520;-76
2021/07/14 07:20:45;;;;;;;;;;;;;;;33.25;63.28;100175.78;1718395;81;20100;-75
2021/07/14 07:23:11;;;;;;;;;;;;;;;33.39;63.07;100172.80;1759614;80;20167;-75
2021/07/14 07:25:38;;;;;;;;;;;;;;;33.61;63.38;100168.39;1768529;79;20545;-75
2021/07/14 07:28:12;;;;;;;;;;;;;;;33.61;62.60;100172.41;1730634;81;20129;-75
2021/07/14 07:30:33;;;;;;;;;;;;;;;33.82;62.58;100178.70;1730367;82;20089;-75
2021/07/14 07:32:59;;;;;;;;;;;;;;;34.03;62.27;100171.23;1728118;81;20220;-75
2021/07/14 07:35:25;;;;;;;;;;;;;;;34.17;62.14;100168.21;1720972;81;20123;-75
2021/07/14 07:37:51;;;;;;;;;;;;;;;34.26;61.95;100171.62;1766031;80;20140;-75
2021/07/14 07:40:18;;;;;;;;;;;;;;;34.37;61.99;100170.62;1717616;82;20175;-75
2021/07/14 07:42:51;;;;;;;;;;;;;;;34.49;61.69;100176.33;1748929;79;20470;-75
2021/07/14 07:45:17;;;;;;;;;;;;;;;34.43;61.78;100174.40;1735724;82;20196;-75
2021/07/14 07:47:44;;;;;;;;;;;;;;;34.24;61.46;100179.03;1735908;82;20196;-75
2021/07/14 07:50:11;;;;;;;;;;;;;;;34.38;61.25;100184.88;1766353;81;20140;-75
2021/07/14 07:52:38;;;;;;;;;;;;;;;34.41;61.04;100192.05;1718083;82;20203;-75
2021/07/14 07:55:06;;;;;;;;;;;;;;;34.18;60.57;100195.38;1771668;80;20316;-75
2021/07/14 07:57:33;;;;;;;;;;;;;;;34.31;60.53;100204.13;1752742;81;20107;-75
2021/07/14 08:00:01;;;;;;;;;;;;;;;34.24;60.17;100213.92;1752395;81;20201;-75
2021/07/14 08:02:27;;;;;;;;;;;;;;;34.13;59.83;100208.52;1767481;80;20176;-75
2021/07/14 08:04:53;;;;;;;;;;;;;;;34.06;60.02;100211.12;1761950;80;20189;-75
2021/07/14 08:07:19;;;;;;;;;;;;;;;33.89;59.69;100217.69;1752821;81;20177;-75
2021/07/14 08:09:45;;;;;;;;;;;;;;;33.88;59.55;100216.86;1753061;81;20208;-75
2021/07/14 08:12:12;;;;;;;;;;;;;;;33.92;59.39;100213.30;1752282;81;20178;-75
2021/07/14 08:14:38;;;;;;;;;;;;;;;34.04;59.19;100213.16;1767357;81;20672;-75
2021/07/14 08:17:05;;;;;;;;;;;;;;;34.12;58.99;100210.88;1753173;81;20217;-75
2021/07/14 08:19:38;;;;;;;;;;;;;;;34.02;58.68;100209.83;1766966;81;20586;-75
2021/07/14 08:22:04;;;;;;;;;;;;;;;33.88;58.72;100203.95;1766413;81;20231;-75
2021/07/14 08:24:30;;;;;;;;;;;;;;;33.78;58.54;100200.72;1718689;83;20261;-75
2021/07/14 08:26:59;;;;;;;;;;;;;;;33.76;58.41;100208.11;1765971;80;20201;-75
2021/07/14 08:29:25;;;;;;;;;;;;;;;33.57;58.09;100221.55;1744288;81;20189;-75
2021/07/14 08:31:54;;;;;;;;;;;;;;;33.42;58.25;100227.39;1757588;81;20168;-75
2021/07/14 08:34:19;;;;;;;;;;;;;;;33.26;58.16;100227.02;1719878;82;20198;-75
2021/07/14 08:36:45;;;;;;;;;;;;;;;33.26;58.17;100238.25;1724041;82;20195;-75
2021/07/14 08:39:11;;;;;;;;;;;;;;;33.19;57.95;100243.50;1766182;81;20169;-75
2021/07/14 08:41:44;;;;;;;;;;;;;;;33.19;57.97;100240.81;1767784;80;20153;-75
2021/07/14 08:44:12;;;;;;;;;;;;;;;33.33;57.98;100246.73;1717722;82;20158;-76
2021/07/14 08:46:40;;;;;;;;;;;;;;;33.40;57.59;100245.00;1769463;80;20180;-75
2021/07/14 08:49:06;;;;;;;;;;;;;;;33.34;57.66;100248.40;1714085;82;20190;-75
2021/07/14 08:51:34;;;;;;;;;;;;;;;33.26;57.73;100255.67;1743918;81;20132;-75
2021/07/14 08:54:00;;;;;;;;;;;;;;;33.19;57.40;100256.90;1754397;81;20119;-75
2021/07/14 08:56:27;;;;;;;;;;;;;;;33.20;57.44;100258.56;1762384;80;20121;-75
2021/07/14 08:58:53;;;;;;;;;;;;;;;33.22;57.32;100254.69;1771296;80;20088;-75
2021/07/14 09:01:19;;;;;;;;;;;;;;;33.26;57.21;100248.97;1773043;80;20105;-75
2021/07/14 09:03:48;;;;;;;;;;;;;;;33.45;57.24;100251.16;1724265;82;20118;-75
2021/07/14 09:06:14;;;;;;;;;;;;;;;33.46;57.04;100266.23;1755219;81;20106;-75
2021/07/14 09:08:42;;;;;;;;;;;;;;;33.32;56.98;100289.29;1756573;81;20309;-75
2021/07/14 09:11:08;;;;;;;;;;;;;;;33.10;56.83;100299.50;1773054;80;20203;-75
2021/07/14 09:13:37;;;;;;;;;;;;;;;32.78;56.75;100317.43;1729372;80;20142;-75
2021/07/14 09:16:10;;;;;;;;;;;;;;;32.67;56.70;100325.02;1754736;80;20106;-75
2021/07/14 09:18:36;;;;;;;;;;;;;;;32.67;56.93;100327.19;1778007;80;20141;-75
2021/07/14 09:21:05;;;;;;;;;;;;;;;32.79;56.62;100339.19;1779412;80;20486;-75
2021/07/14 09:23:35;;;;;;;;;;;;;;;32.98;56.68;100347.80;1774602;79;20159;-75
2021/07/14 09:26:03;;;;;;;;;;;;;;;33.06;56.49;100339.72;1736409;81;20277;-75
2021/07/14 09:28:34;;;;;;;;;;;;;;;33.10;56.43;100333.00;1766964;79;20156;-75
2021/07/14 09:31:05;;;;;;;;;;;;;;;32.99;56.31;100333.39;1771175;80;20188;-75
2021/07/14 09:33:31;;;;;;;;;;;;;;;32.80;56.29;100339.52;1772658;79;20144;-75
2021/07/14 09:35:58;;;;;;;;;;;;;;;32.64;56.30;100341.43;1743360;81;20899;-75
2021/07/14 09:38:29;;;;;;;;;;;;;;;32.38;56.10;100339.84;1752598;81;20198;-75
2021/07/14 09:41:01;;;;;;;;;;;;;;;32.19;56.18;100330.36;1772647;80;20124;-75
2021/07/14 09:43:29;;;;;;;;;;;;;;;32.01;55.93;100344.94;1777108;80;20175;-75
2021/07/14 09:46:16;;;;;;;;;;;;;;;31.59;55.69;100354.82;1726556;82;20576;-75
2021/07/14 09:48:46;;;;;;;;;;;;;;;31.12;55.84;100349.23;1774762;80;20151;-75
2021/07/14 09:51:14;;;;;;;;;;;;;;;30.89;55.82;100358.84;1761139;80;20327;-75
2021/07/14 09:53:43;;;;;;;;;;;;;;;30.81;56.02;100365.48;1741339;82;20281;-75
2021/07/14 09:56:16;;;;;;;;;;;;;;;30.78;56.00;100363.14;1757386;81;20464;-75
2021/07/14 09:58:43;;;;;;;;;;;;;;;30.78;55.81;100356.47;1767916;80;20151;-75
2021/07/14 10:01:17;;;;;;;;;;;;;;;30.66;55.62;100353.78;1760472;80;20199;-75
2021/07/14 10:03:50;;;;;;;;;;;;;;;30.56;55.83;100351.20;1752698;80;20205;-75
2021/07/14 10:06:20;;;;;;;;;;;;;;;30.53;55.80;100356.85;1755978;80;20227;-75
2021/07/14 10:08:50;;;;;;;;;;;;;;;30.52;55.83;100375.20;1729239;81;20174;-75
2021/07/14 10:11:25;;;;;;;;;;;;;;;30.55;55.77;100380.22;1747089;80;20604;-75
2021/07/14 10:14:05;;;;;;;;;;;;;;;30.52;55.64;100374.70;1740997;80;20173;-75
2021/07/14 10:16:40;;;;;;;;;;;;;;;30.45;55.59;100357.64;1748073;80;20181;-75
2021/07/14 10:19:13;;;;;;;;;;;;;;;30.38;55.70;100358.44;1748115;81;20340;-75
2021/07/14 10:21:41;;;;;;;;;;;;;;;30.32;55.62;100361.23;1765782;80;20181;-75
2021/07/14 10:24:13;;;;;;;;;;;;;;;30.21;55.59;100360.17;1756105;80;20225;-75
2021/07/14 10:26:56;;;;;;;;;;;;;;;30.16;55.78;100361.14;1734703;81;20309;-75
2021/07/14 10:29:20;;;;;;;;;;;;;;;30.20;55.80;100357.16;1745832;80;20425;-75
2021/07/14 10:31:48;;;;;;;;;;;;;;;30.26;55.77;100350.70;1742954;81;20104;-75
2021/07/14 10:34:33;;;;;;;;;;;;;;;30.25;55.75;100355.70;1740044;80;20160;-75
2021/07/14 10:37:12;;;;;;;;;;;;;;;30.21;55.79;100370.84;1739375;80;20343;-75
2021/07/14 10:39:38;;;;;;;;;;;;;;;30.11;55.77;100380.31;1739696;80;20477;-75
2021/07/14 10:42:05;;;;;;;;;;;;;;;30.13;55.81;100388.98;1737244;80;20196;-75
2021/07/14 10:44:32;;;;;;;;;;;;;;;30.09;55.80;100390.30;1755223;80;20150;-75
2021/07/14 10:46:59;;;;;;;;;;;;;;;30.13;55.88;100389.48;1747771;80;20084;-75
2021/07/14 10:49:25;;;;;;;;;;;;;;;30.26;55.83;100393.88;1757471;80;20409;-75
2021/07/14 10:51:51;;;;;;;;;;;;;;;30.43;55.90;100392.16;1761482;80;20096;-75
2021/07/14 10:54:19;;;;;;;;;;;;;;;30.63;55.97;100391.47;1763422;80;20146;-75
2021/07/14 10:56:46;;;;;;;;;;;;;;;30.82;55.81;100400.54;1761382;80;20124;-75
2021/07/14 10:59:13;;;;;;;;;;;;;;;30.89;55.67;100413.09;1754235;80;20106;-75
2021/07/14 11:01:45;;;;;;;;;;;;;;;30.87;55.54;100426.26;1760384;80;20106;-75
2021/07/14 11:04:14;;;;;;;;;;;;;;;30.89;55.69;100429.11;1748116;80;20117;-75
2021/07/14 11:07:06;;;;;;;;;;;;;;;30.92;55.58;100436.80;1741906;80;20118;-75
2021/07/14 11:09:38;;;;;;;;;;;;;;;30.90;55.56;100440.13;1742325;80;20194;-75
2021/07/14 11:12:08;;;;;;;;;;;;;;;30.86;55.48;100441.94;1731270;80;20133;-75
2021/07/14 11:14:37;;;;;;;;;;;;;;;30.86;55.38;100460.14;1752478;80;20443;-74
2021/07/14 11:17:04;;;;;;;;;;;;;;;30.81;55.02;100456.27;1754532;80;20197;-75
2021/07/14 11:19:50;;;;;;;;;;;;;;;30.65;54.88;100458.38;1757171;80;20130;-76
2021/07/14 11:22:36;;;;;;;;;;;;;;;30.49;54.63;100464.91;1730950;81;20556;-75
2021/07/14 11:25:04;;;;;;;;;;;;;;;30.21;54.56;100473.04;1732851;82;20214;-75
2021/07/14 11:27:39;;;;;;;;;;;;;;;29.91;54.41;100496.09;1768306;80;20503;-75
2021/07/14 11:30:09;;;;;;;;;;;;;;;29.65;54.26;100514.16;1747828;80;20444;-75
2021/07/14 11:32:39;;;;;;;;;;;;;;;29.50;54.06;100518.84;1739546;80;20118;-75
2021/07/14 11:35:17;;;;;;;;;;;;;;;29.36;54.03;100524.63;1748950;80;20164;-75
2021/07/14 11:37:47;;;;;;;;;;;;;;;29.27;53.90;100525.02;1731205;80;20126;-75
2021/07/14 11:40:24;;;;;;;;;;;;;;;29.01;53.62;100511.55;1750951;80;20634;-75
2021/07/14 11:42:58;;;;;;;;;;;;;;;28.82;53.54;100512.45;1762057;80;20221;-75
2021/07/14 11:45:37;;;;;;;;;;;;;;;28.61;53.39;100507.28;1746776;80;20162;-75
2021/07/14 11:48:15;;;;;;;;;;;;;;;28.43;53.53;100526.80;1758440;79;20215;-75
2021/07/14 11:50:45;;;;;;;;;;;;;;;28.19;53.54;100509.91;1744023;80;20465;-75
2021/07/14 11:53:40;;;;;;;;;;;;;;;28.00;53.64;100486.84;1756509;80;21030;-75
2021/07/14 11:56:18;;;;;;;;;;;;;;;27.84;53.60;100497.17;1752847;80;20471;-74
2021/07/14 11:58:54;;;;;;;;;;;;;;;27.55;53.65;100467.91;1758373;81;20196;-74
2021/07/14 12:01:27;;;;;;;;;;;;;;;27.44;53.77;100447.61;1728620;81;20198;-74
2021/07/14 12:04:05;;;;;;;;;;;;;;;27.37;53.75;100411.95;1766884;80;20172;-74
2021/07/14 12:07:01;;;;;;;;;;;;;;;27.38;53.83;100423.42;1752124;81;20465;-74
2021/07/14 12:09:30;;;;;;;;;;;;;;;27.45;53.79;100389.53;1752242;81;20146;-74
2021/07/14 12:12:00;;;;;;;;;;;;;;;27.54;53.83;100387.38;1754008;81;20253;-74
2021/07/14 12:14:34;;;;;;;;;;;;;;;27.69;53.87;100377.17;1752977;81;20184;-74
2021/07/14 12:17:15;;;;;;;;;;;;;;;27.96;53.92;100376.46;1766857;80;20156;-74
2021/07/14 12:19:44;;;;;;;;;;;;;;;28.14;53.54;100385.36;1725587;81;20171;-74
2021/07/14 12:22:18;;;;;;;;;;;;;;;28.25;53.58;100399.02;1744946;80;20122;-75
2021/07/14 12:24:51;;;;;;;;;;;;;;;28.34;53.52;100414.95;1760127;79;20533;-75
2021/07/14 12:27:23;;;;;;;;;;;;;;;28.39;53.43;100425.66;1756096;80;20168;-75
2021/07/14 12:30:08;;;;;;;;;;;;;;;28.45;53.52;100426.41;1746322;80;20611;-75
2021/07/14 12:32:37;;;;;;;;;;;;;;;28.42;53.39;100428.86;1673563;84;20342;-75
2021/07/14 12:35:10;;;;;;;;;;;;;;;28.42;53.49;100432.86;1695780;83;20146;-75
2021/07/14 12:37:41;;;;;;;;;;;;;;;28.47;53.36;100419.13;1694823;83;20131;-75
2021/07/14 12:40:13;;;;;;;;;;;;;;;28.48;53.41;100408.83;1696300;83;20119;-75
2021/07/14 12:42:42;;;;;;;;;;;;;;;28.46;53.62;100412.97;1667175;85;20117;-75
2021/07/14 12:45:12;;;;;;;;;;;;;;;28.53;53.49;100413.23;1695211;84;20448;-75
2021/07/14 12:47:40;;;;;;;;;;;;;;;28.55;53.43;100408.11;1693937;83;20100;-75
2021/07/14 12:50:07;;;;;;;;;;;;;;;28.56;53.49;100413.78;1695132;83;20170;-75
2021/07/14 12:52:33;;;;;;;;;;;;;;;28.62;53.53;100401.69;1700318;83;20096;-75
2021/07/14 12:55:01;;;;;;;;;;;;;;;28.59;53.33;100378.06;1696701;83;20094;-76